createdAt,value
2023-04-15T00:03:02.398Z,5.53
2023-04-15T00:06:04.898Z,4.50
2023-04-15T00:09:07.229Z,4.80
2023-04-15T00:12:09.794Z,4.73
2023-04-15T00:15:12.608Z,4.60
2023-04-15T00:18:14.976Z,4.68
2023-04-15T00:21:17.291Z,3.97
2023-04-15T00:24:19.654Z,5.57
2023-04-15T00:27:22.062Z,4.23
2023-04-15T00:30:24.387Z,4.47
2023-04-15T00:33:26.815Z,4.70
2023-04-15T00:36:29.169Z,3.75
2023-04-15T00:39:31.742Z,3.95
2023-04-15T00:42:35.096Z,3.80
2023-04-15T00:45:37.493Z,4.20
2023-04-15T00:48:40.828Z,4.47
2023-04-15T00:51:43.194Z,5.28
2023-04-15T00:54:45.674Z,4.07
2023-04-15T00:57:48.573Z,4.20
2023-04-15T01:00:54.437Z,5.10
2023-04-15T01:04:00.526Z,4.85
2023-04-15T01:07:02.991Z,4.13
2023-04-15T01:10:05.816Z,4.90
2023-04-15T01:13:08.184Z,4.20
2023-04-15T01:16:11.879Z,4.03
2023-04-15T01:19:14.979Z,4.65
2023-04-15T01:22:17.596Z,4.20
2023-04-15T01:25:28.034Z,4.65
2023-04-15T01:28:30.742Z,4.37
2023-04-15T01:31:33.543Z,4.10
2023-04-15T01:34:36.211Z,4.10
2023-04-15T01:37:38.553Z,4.35
2023-04-15T01:40:40.998Z,3.90
2023-04-15T01:43:43.365Z,4.47
2023-04-15T01:46:45.817Z,4.33
2023-04-15T01:49:48.308Z,3.22
2023-04-15T01:52:51.191Z,4.03
2023-04-15T01:55:54.131Z,4.78
2023-04-15T01:58:57.046Z,4.07
2023-04-15T02:02:00.058Z,3.70
2023-04-15T02:05:04.844Z,3.72
2023-04-15T02:08:07.178Z,4.45
2023-04-15T02:11:12.041Z,4.55
2023-04-15T02:14:14.496Z,3.30
2023-04-15T02:17:17.441Z,3.90
2023-04-15T02:20:21.443Z,3.08
2023-04-15T02:23:23.851Z,3.17
2023-04-15T02:26:26.274Z,4.13
2023-04-15T02:29:32.535Z,4.13
2023-04-15T02:32:38.128Z,4.47
2023-04-15T02:35:44.217Z,3.17
2023-04-15T02:38:46.574Z,3.53
2023-04-15T02:41:53.380Z,3.45
2023-04-15T02:44:57.324Z,3.40
2023-04-15T02:48:06.717Z,4.00
2023-04-15T02:51:20.135Z,3.10
2023-04-15T02:54:23.132Z,3.65
2023-04-15T02:57:26.178Z,3.25
2023-04-15T03:00:28.640Z,5.03
2023-04-15T03:03:31.227Z,3.47
2023-04-15T03:06:33.681Z,4.03
2023-04-15T03:09:36.344Z,3.47
2023-04-15T03:12:39.578Z,4.47
2023-04-15T03:15:42.235Z,3.20
2023-04-15T03:18:45.425Z,3.97
2023-04-15T03:21:48.227Z,3.13
2023-04-15T03:24:50.728Z,3.35
2023-04-15T03:27:53.271Z,3.53
2023-04-15T03:30:56.091Z,3.17
2023-04-15T03:33:58.443Z,2.83
2023-04-15T03:37:01.135Z,3.40
2023-04-15T03:40:03.616Z,3.42
2023-04-15T03:43:05.929Z,4.32
2023-04-15T03:46:08.272Z,3.20
2023-04-15T03:49:11.276Z,3.13
2023-04-15T03:52:13.693Z,3.40
2023-04-15T03:55:16.192Z,2.65
2023-04-15T03:58:18.958Z,3.25
2023-04-15T04:01:21.464Z,2.87
2023-04-15T04:04:24.070Z,2.67
2023-04-15T04:07:26.661Z,3.50
2023-04-15T04:10:29.036Z,2.70
2023-04-15T04:13:31.360Z,2.92
2023-04-15T04:16:33.769Z,4.50
2023-04-15T04:19:36.166Z,2.80
2023-04-15T04:22:41.798Z,3.20
2023-04-15T04:25:44.165Z,2.72
2023-04-15T04:28:46.617Z,4.13
2023-04-15T04:31:49.264Z,2.90
2023-04-15T04:34:51.607Z,4.17
2023-04-15T04:37:53.962Z,2.90
2023-04-15T04:40:56.445Z,3.88
2023-04-15T04:43:58.797Z,3.28
2023-04-15T04:47:01.170Z,3.13
2023-04-15T04:50:03.720Z,3.20
2023-04-15T04:53:06.153Z,3.70
2023-04-15T04:56:08.669Z,2.92
2023-04-15T04:59:11.034Z,3.55
2023-04-15T05:02:13.503Z,4.30
2023-04-15T05:05:16.322Z,3.23
2023-04-15T05:08:18.747Z,3.95
2023-04-15T05:11:21.126Z,3.88
2023-04-15T05:14:23.538Z,3.92
2023-04-15T05:17:25.885Z,4.00
2023-04-15T05:20:28.365Z,4.30
2023-04-15T05:23:30.761Z,4.90
2023-04-15T05:26:33.125Z,4.22
2023-04-15T05:29:35.690Z,3.08
2023-04-15T05:32:38.290Z,4.10
2023-04-15T05:35:40.696Z,4.93
2023-04-15T05:38:43.065Z,4.53
2023-04-15T05:41:45.445Z,3.70
2023-04-15T05:44:47.873Z,3.28
2023-04-15T05:47:51.041Z,3.93
2023-04-15T05:50:53.535Z,3.40
2023-04-15T05:53:55.946Z,2.55
2023-04-15T05:56:58.513Z,3.58
2023-04-15T06:00:01.049Z,3.47
2023-04-15T06:03:04.152Z,3.37
2023-04-15T06:06:07.799Z,3.73
2023-04-15T06:09:10.119Z,2.58
2023-04-15T06:12:13.217Z,3.53
2023-04-15T06:15:15.656Z,2.75
2023-04-15T06:18:17.982Z,3.97
2023-04-15T06:21:20.400Z,3.27
2023-04-15T06:24:22.771Z,3.35
2023-04-15T06:27:25.320Z,3.13
2023-04-15T06:30:27.716Z,2.72
2023-04-15T06:33:30.162Z,4.00
2023-04-15T06:36:32.751Z,3.47
2023-04-15T06:39:35.107Z,2.58
2023-04-15T06:42:38.373Z,3.45
2023-04-15T06:45:40.835Z,3.10
2023-04-15T06:48:43.209Z,2.83
2023-04-15T06:51:45.614Z,2.70
2023-04-15T06:54:48.030Z,3.53
2023-04-15T06:57:50.408Z,3.20
2023-04-15T07:00:53.266Z,2.75
2023-04-15T07:03:55.646Z,3.43
2023-04-15T07:06:57.985Z,3.17
2023-04-15T07:10:02.130Z,3.22
2023-04-15T07:13:04.555Z,3.22
2023-04-15T07:16:06.912Z,4.53
2023-04-15T07:19:09.321Z,4.20
2023-04-15T07:22:11.891Z,2.73
2023-04-15T07:25:14.243Z,3.30
2023-04-15T07:28:16.856Z,3.47
2023-04-15T07:31:19.356Z,2.92
2023-04-15T07:34:21.755Z,3.50
2023-04-15T07:37:24.233Z,2.80
2023-04-15T07:40:26.694Z,2.60
2023-04-15T07:43:29.189Z,2.85
2023-04-15T07:46:31.886Z,2.65
2023-04-15T07:49:34.207Z,2.63
2023-04-15T07:52:39.507Z,2.70
2023-04-15T07:55:41.811Z,3.20
2023-04-15T07:58:44.155Z,3.05
2023-04-15T08:01:46.772Z,2.78
2023-04-15T08:04:49.238Z,2.83
2023-04-15T08:07:51.740Z,2.60
2023-04-15T08:10:54.081Z,2.33
2023-04-15T08:13:56.621Z,2.67
2023-04-15T08:16:58.994Z,3.08
2023-04-15T08:20:01.454Z,2.60
2023-04-15T08:23:04.782Z,2.23
2023-04-15T08:26:07.718Z,2.50
2023-04-15T08:29:10.032Z,3.03
2023-04-15T08:32:12.382Z,2.47
2023-04-15T08:35:15.510Z,2.60
2023-04-15T08:38:18.286Z,4.37
2023-04-15T08:41:25.451Z,2.55
2023-04-15T08:44:29.614Z,3.20
2023-04-15T08:47:32.256Z,2.60
2023-04-15T08:50:35.244Z,2.37
2023-04-15T08:53:37.832Z,2.83
2023-04-15T08:56:40.879Z,2.83
2023-04-15T08:59:43.691Z,2.63
2023-04-15T09:02:46.961Z,2.53
2023-04-15T09:05:52.684Z,2.67
2023-04-15T09:08:55.826Z,2.20
2023-04-15T09:11:58.263Z,2.33
2023-04-15T09:15:01.468Z,2.15
2023-04-15T09:18:04.310Z,1.88
2023-04-15T09:21:09.047Z,2.00
2023-04-15T09:24:11.457Z,2.20
2023-04-15T09:27:16.813Z,1.80
2023-04-15T09:30:19.196Z,2.25
2023-04-15T09:33:21.578Z,2.50
2023-04-15T09:36:25.252Z,2.50
2023-04-15T09:39:27.560Z,1.93
2023-04-15T09:42:29.982Z,1.60
2023-04-15T09:45:33.705Z,2.30
2023-04-15T09:48:36.746Z,1.40
2023-04-15T09:51:39.419Z,1.93
2023-04-15T09:54:41.761Z,1.60
2023-04-15T09:57:47.277Z,1.50
2023-04-15T10:00:51.913Z,2.55
2023-04-15T10:03:57.002Z,1.60
2023-04-15T10:06:59.602Z,1.73
2023-04-15T10:10:05.436Z,1.53
2023-04-15T10:13:08.411Z,1.52
2023-04-15T10:16:12.695Z,1.50
2023-04-15T10:19:16.565Z,1.23
2023-04-15T10:22:19.019Z,2.23
2023-04-15T10:25:21.677Z,1.60
2023-04-15T10:28:24.178Z,1.85
2023-04-15T10:31:26.762Z,1.60
2023-04-15T10:34:30.221Z,2.10
2023-04-15T10:37:38.345Z,1.70
2023-04-15T10:40:41.191Z,1.87
2023-04-15T10:43:57.962Z,1.63
2023-04-15T10:47:00.594Z,2.38
2023-04-15T10:50:03.723Z,2.10
2023-04-15T10:53:06.220Z,1.93
2023-04-15T10:56:08.851Z,1.47
2023-04-15T10:59:11.308Z,2.10
2023-04-15T11:02:14.279Z,1.70
2023-04-15T11:05:17.650Z,1.75
2023-04-15T11:08:20.586Z,2.37
2023-04-15T11:11:23.242Z,2.60
2023-04-15T11:14:25.764Z,1.60
2023-04-15T11:17:31.470Z,1.67
2023-04-15T11:20:34.163Z,2.45
2023-04-15T11:23:44.238Z,2.67
2023-04-15T11:26:46.704Z,1.93
2023-04-15T11:29:49.126Z,2.35
2023-04-15T11:32:53.080Z,1.55
2023-04-15T11:35:55.487Z,1.95
2023-04-15T11:38:59.226Z,1.83
2023-04-15T11:42:01.609Z,1.83
2023-04-15T11:45:15.292Z,1.42
2023-04-15T11:48:18.480Z,1.58
2023-04-15T11:51:22.713Z,2.20
2023-04-15T11:54:25.071Z,1.40
2023-04-15T11:57:32.101Z,1.90
2023-04-15T12:00:35.307Z,1.77
2023-04-15T12:03:49.100Z,1.65
2023-04-15T12:06:51.743Z,1.63
2023-04-15T12:09:57.939Z,1.70
2023-04-15T12:13:00.380Z,1.40
2023-04-15T12:16:03.823Z,1.60
2023-04-15T12:19:10.078Z,1.42
2023-04-15T12:22:16.172Z,1.52
2023-04-15T12:25:18.543Z,1.60
2023-04-15T12:28:20.914Z,1.90
2023-04-15T12:31:23.847Z,1.83
2023-04-15T12:34:33.366Z,1.48
2023-04-15T12:37:35.826Z,1.77
2023-04-15T12:40:38.185Z,2.07
2023-04-15T12:43:40.582Z,1.30
2023-04-15T12:46:43.015Z,1.60
2023-04-15T12:49:45.790Z,1.40
2023-04-15T12:52:48.151Z,1.40
2023-04-15T12:55:50.494Z,1.70
2023-04-15T12:58:53.177Z,1.77
2023-04-15T13:01:55.734Z,1.30
2023-04-15T13:04:58.296Z,1.55
2023-04-15T13:08:00.956Z,1.42
2023-04-15T13:11:03.850Z,1.80
2023-04-15T13:14:08.463Z,1.73
2023-04-15T13:17:11.590Z,1.40
2023-04-15T13:20:14.291Z,1.33
2023-04-15T13:23:17.050Z,1.60
2023-04-15T13:26:19.480Z,1.60
2023-04-15T13:29:22.290Z,1.20
2023-04-15T13:32:24.665Z,1.95
2023-04-15T13:35:27.159Z,1.70
2023-04-15T13:38:29.500Z,1.50
2023-04-15T13:41:32.302Z,1.70
2023-04-15T13:44:35.237Z,1.17
2023-04-15T13:47:37.693Z,1.23
2023-04-15T13:50:41.801Z,0.90
2023-04-15T13:53:44.406Z,1.63
2023-04-15T13:56:46.785Z,1.30
2023-04-15T13:59:49.193Z,1.13
2023-04-15T14:02:52.013Z,1.38
2023-04-15T14:05:56.198Z,1.42
2023-04-15T14:08:58.616Z,1.55
2023-04-15T14:12:01.584Z,1.20
2023-04-15T14:15:04.444Z,1.77
2023-04-15T14:18:07.604Z,1.60
2023-04-15T14:21:10.030Z,1.20
2023-04-15T14:24:12.396Z,1.27
2023-04-15T14:27:15.517Z,1.40
2023-04-15T14:30:17.950Z,1.80
2023-04-15T14:33:20.434Z,1.98
2023-04-15T14:36:22.971Z,1.60
2023-04-15T14:39:25.495Z,1.35
2023-04-15T14:42:27.846Z,1.37
2023-04-15T14:45:30.754Z,1.53
2023-04-15T14:48:33.190Z,1.50
2023-04-15T14:51:35.692Z,1.60
2023-04-15T14:54:38.220Z,1.45
2023-04-15T14:57:41.669Z,1.80
2023-04-15T15:00:44.601Z,1.10
2023-04-15T15:03:47.972Z,1.42
2023-04-15T15:06:50.905Z,1.40
2023-04-15T15:09:54.332Z,1.48
2023-04-15T15:12:56.686Z,1.00
2023-04-15T15:15:59.281Z,1.20
2023-04-15T15:19:01.763Z,1.50
2023-04-15T15:22:04.464Z,1.85
2023-04-15T15:25:06.929Z,1.35
2023-04-15T15:28:09.378Z,2.00
2023-04-15T15:31:11.823Z,1.40
2023-04-15T15:34:14.335Z,1.65
2023-04-15T15:37:16.695Z,1.42
2023-04-15T15:40:19.318Z,1.33
2023-04-15T15:43:21.675Z,2.30
2023-04-15T15:46:24.385Z,1.40
2023-04-15T15:49:46.280Z,1.50
2023-04-15T15:52:48.712Z,1.30
2023-04-15T15:55:53.179Z,1.67
2023-04-15T15:58:56.169Z,2.50
2023-04-15T16:01:59.047Z,2.10
2023-04-15T16:05:01.571Z,1.92
2023-04-15T16:08:04.108Z,2.50
2023-04-15T16:11:06.481Z,2.38
2023-04-15T16:14:08.887Z,2.43
2023-04-15T16:17:11.374Z,2.00
2023-04-15T16:20:13.695Z,2.30
2023-04-15T16:23:16.922Z,1.77
2023-04-15T16:26:19.420Z,1.38
2023-04-15T16:29:21.852Z,1.50
2023-04-15T16:32:24.455Z,1.27
2023-04-15T16:35:26.835Z,1.33
2023-04-15T16:38:29.173Z,1.23
2023-04-15T16:41:33.237Z,1.20
2023-04-15T16:44:36.902Z,1.23
2023-04-15T16:47:39.300Z,1.07
2023-04-15T16:50:41.682Z,1.20
2023-04-15T16:53:44.041Z,1.17
2023-04-15T16:56:46.400Z,1.20
2023-04-15T16:59:48.805Z,1.20
2023-04-15T17:02:51.278Z,1.60
2023-04-15T17:05:53.733Z,1.60
2023-04-15T17:08:56.214Z,1.23
2023-04-15T17:11:58.783Z,1.25
2023-04-15T17:15:01.265Z,1.20
2023-04-15T17:18:04.857Z,1.80
2023-04-15T17:21:07.429Z,1.50
2023-04-15T17:24:09.806Z,1.40
2023-04-15T17:27:12.157Z,2.05
2023-04-15T17:30:14.615Z,1.63
2023-04-15T17:33:55.918Z,2.13
2023-04-15T17:36:39.418Z,1.38
2023-04-15T17:39:41.741Z,1.75
2023-04-15T17:42:44.166Z,2.65
2023-04-15T17:45:47.567Z,4.70
2023-04-15T17:48:50.227Z,4.80
2023-04-15T17:51:54.901Z,3.10
2023-04-15T17:54:57.259Z,4.63
2023-04-15T17:58:00.452Z,4.40
2023-04-15T18:01:02.941Z,3.63
2023-04-15T18:04:06.390Z,2.30
2023-04-15T18:07:09.481Z,1.98
2023-04-15T18:10:12.185Z,1.60
2023-04-15T18:13:14.628Z,1.58
2023-04-15T18:16:17.116Z,1.47
2023-04-15T18:19:19.661Z,2.00
2023-04-15T18:22:22.268Z,2.38
2023-04-15T18:25:24.867Z,2.15
2023-04-15T18:28:27.366Z,1.48
2023-04-15T18:31:29.956Z,1.30
2023-04-15T18:34:32.596Z,2.13
2023-04-15T18:37:35.473Z,1.98
2023-04-15T18:40:37.972Z,1.67
2023-04-15T18:43:40.543Z,1.35
2023-04-15T18:46:43.090Z,1.10
2023-04-15T18:49:45.630Z,2.13
2023-04-15T18:52:48.195Z,1.70
2023-04-15T18:55:50.792Z,1.70
2023-04-15T18:59:10.175Z,1.60
2023-04-15T19:02:16.018Z,1.93
2023-04-15T19:05:18.697Z,2.40
2023-04-15T19:08:21.264Z,2.55
2023-04-15T19:11:23.986Z,1.95
2023-04-15T19:14:26.289Z,3.10
2023-04-15T19:17:28.994Z,2.67
2023-04-15T19:20:32.294Z,2.57
2023-04-15T19:23:36.816Z,2.88
2023-04-15T19:26:39.425Z,3.20
2023-04-15T19:29:41.990Z,2.95
2023-04-15T19:32:44.595Z,3.63
2023-04-15T19:35:49.982Z,3.43
2023-04-15T19:38:52.744Z,4.05
2023-04-15T19:41:56.012Z,2.75
2023-04-15T19:44:58.608Z,2.95
2023-04-15T19:48:01.116Z,2.20
2023-04-15T19:51:03.746Z,2.37
2023-04-15T19:54:06.577Z,4.57
2023-04-15T19:57:09.226Z,3.30
2023-04-15T20:00:12.327Z,2.85
2023-04-15T20:03:14.953Z,2.47
2023-04-15T20:06:17.627Z,2.33
2023-04-15T20:09:20.164Z,2.17
2023-04-15T20:12:49.665Z,2.08
2023-04-15T20:15:45.243Z,1.60
2023-04-15T20:18:47.808Z,2.03
2023-04-15T20:21:52.108Z,2.10
2023-04-15T20:24:55.115Z,3.08
2023-04-15T20:28:00.394Z,2.25
2023-04-15T20:31:03.617Z,2.80
2023-04-15T20:34:06.402Z,1.80
2023-04-15T20:37:08.864Z,2.37
2023-04-15T20:40:11.917Z,2.08
2023-04-15T20:43:14.602Z,3.25
2023-04-15T20:46:21.245Z,2.60
2023-04-15T20:49:24.177Z,2.00
2023-04-15T20:52:26.502Z,2.10
2023-04-15T20:55:30.699Z,2.72
2023-04-15T20:58:33.266Z,1.90
2023-04-15T21:01:35.793Z,2.38
2023-04-15T21:04:38.942Z,2.03
2023-04-15T21:07:41.399Z,2.10
2023-04-15T21:10:43.785Z,2.85
2023-04-15T21:13:46.537Z,2.47
2023-04-15T21:16:49.008Z,2.35
2023-04-15T21:19:51.373Z,2.37
2023-04-15T21:22:53.810Z,1.97
2023-04-15T21:25:56.693Z,2.83
2023-04-15T21:28:59.094Z,2.33
2023-04-15T21:32:01.545Z,1.70
2023-04-15T21:35:04.186Z,2.20
2023-04-15T21:38:06.527Z,2.20
2023-04-15T21:41:09.815Z,1.77
2023-04-15T21:44:13.980Z,1.70
2023-04-15T21:47:17.387Z,1.80
2023-04-15T21:50:19.958Z,2.00
2023-04-15T21:53:22.275Z,2.10
2023-04-15T21:56:25.862Z,2.28
2023-04-15T21:59:28.313Z,2.15
2023-04-15T22:02:30.966Z,2.05
2023-04-15T22:05:33.524Z,2.47
2023-04-15T22:08:48.124Z,4.30
2023-04-15T22:11:55.371Z,3.65
2023-04-15T22:14:57.790Z,2.25
2023-04-15T22:18:00.213Z,2.72
2023-04-15T22:21:02.651Z,2.50
2023-04-15T22:24:38.497Z,2.73
2023-04-15T22:27:28.054Z,3.15
2023-04-15T22:30:30.471Z,2.20
2023-04-15T22:33:32.856Z,2.70
2023-04-15T22:36:35.489Z,2.20
2023-04-15T22:39:37.838Z,2.17
2023-04-15T22:42:40.212Z,2.28
2023-04-15T22:45:42.538Z,2.13
2023-04-15T22:48:44.892Z,2.08
2023-04-15T22:51:47.258Z,2.03
2023-04-15T22:54:49.638Z,2.00
2023-04-15T22:57:52.814Z,1.83
2023-04-15T23:00:55.351Z,2.05
2023-04-15T23:04:04.382Z,1.60
2023-04-15T23:07:09.394Z,1.60
2023-04-15T23:10:11.749Z,1.30
2023-04-15T23:13:14.090Z,1.85
2023-04-15T23:16:16.571Z,2.00
2023-04-15T23:19:19.071Z,2.20
2023-04-15T23:22:21.535Z,1.77
2023-04-15T23:25:24.020Z,2.80
2023-04-15T23:28:26.325Z,1.80
2023-04-15T23:31:28.726Z,2.25
2023-04-15T23:34:31.134Z,2.33
2023-04-15T23:37:33.462Z,2.03
2023-04-15T23:40:35.839Z,1.87
2023-04-15T23:43:38.225Z,2.58
2023-04-15T23:46:40.755Z,1.85
2023-04-15T23:49:43.162Z,1.50
2023-04-15T23:52:45.556Z,1.10
2023-04-15T23:55:49.100Z,1.23
2023-04-15T23:58:51.418Z,1.73
